createdAt,value
2022-12-24T08:20:17.372Z,26.63
2022-12-24T08:25:20.518Z,22.02
2022-12-24T08:30:22.812Z,18.65
2022-12-24T08:35:25.034Z,26.50
2022-12-24T08:40:27.403Z,19.17
2022-12-24T08:45:33.173Z,19.27
2022-12-24T08:50:39.880Z,20.17
2022-12-24T08:55:42.432Z,21.83
2022-12-24T09:00:45.280Z,17.17
2022-12-24T09:05:47.879Z,22.67
2022-12-24T09:10:50.082Z,19.83
2022-12-24T09:15:55.728Z,19.17
2022-12-24T09:21:06.603Z,15.25
2022-12-24T09:26:12.339Z,20.58
2022-12-24T09:31:15.182Z,12.77
2022-12-24T09:36:18.558Z,16.63
2022-12-24T09:41:55.330Z,15.55
2022-12-24T09:47:05.387Z,11.77
2022-12-24T09:52:20.658Z,12.88
2022-12-24T09:57:35.877Z,14.32
2022-12-24T10:02:38.240Z,14.80
2022-12-24T10:07:50.136Z,13.50
2022-12-24T10:13:32.690Z,13.45
2022-12-24T10:18:58.985Z,17.88
2022-12-24T10:24:22.466Z,13.77
2022-12-24T10:29:28.935Z,13.75
2022-12-24T10:34:36.284Z,12.27
2022-12-24T10:39:38.553Z,14.55
2022-12-24T10:44:40.953Z,16.77
2022-12-24T10:49:50.347Z,18.08
2022-12-24T10:55:08.083Z,16.58
2022-12-24T11:00:28.579Z,14.23
2022-12-24T11:05:37.440Z,13.48
2022-12-24T11:10:56.169Z,15.85
2022-12-24T11:16:06.464Z,14.27
2022-12-24T11:21:08.853Z,12.57
2022-12-24T11:26:11.132Z,11.85
2022-12-24T11:31:21.099Z,13.02
2022-12-24T11:36:26.529Z,12.23
2022-12-24T11:41:37.295Z,11.27
2022-12-24T11:46:43.386Z,10.50
2022-12-24T11:52:12.107Z,19.02
2022-12-24T11:57:18.766Z,12.50
2022-12-24T12:02:38.159Z,13.88
2022-12-24T12:07:42.707Z,17.88
2022-12-24T12:12:50.156Z,17.83
2022-12-24T12:17:55.320Z,17.92
2022-12-24T12:23:02.648Z,17.48
2022-12-24T12:28:14.353Z,18.92
2022-12-24T12:33:26.756Z,21.75
2022-12-24T12:38:29.343Z,20.58
2022-12-24T12:43:34.483Z,19.17
2022-12-24T12:49:05.959Z,18.67
2022-12-24T12:59:32.349Z,19.30
2022-12-24T13:04:34.495Z,24.52
2022-12-24T13:10:02.474Z,20.08
2022-12-24T13:15:24.910Z,22.77
2022-12-24T13:20:31.440Z,19.25
2022-12-24T13:25:40.095Z,20.30
2022-12-24T13:30:42.660Z,21.85
2022-12-24T13:35:59.788Z,22.58
2022-12-24T13:41:41.464Z,23.50
2022-12-24T13:47:25.364Z,21.67
2022-12-24T13:52:35.401Z,19.77
2022-12-24T13:57:58.040Z,17.65
2022-12-24T14:03:15.447Z,21.15
2022-12-24T14:08:40.376Z,22.13
2022-12-24T14:13:42.535Z,20.23
2022-12-24T14:18:58.087Z,18.25
2022-12-24T14:24:07.760Z,19.42
2022-12-24T14:29:31.195Z,21.90
2022-12-24T14:34:33.512Z,23.75
2022-12-24T14:39:39.033Z,23.90
2022-12-24T14:44:59.696Z,21.50
2022-12-24T14:50:21.758Z,22.35
2022-12-24T14:55:50.885Z,23.67
2022-12-24T15:00:59.888Z,22.02
2022-12-24T15:06:05.366Z,21.42
2022-12-24T15:11:10.233Z,22.63
2022-12-24T15:16:22.260Z,23.58
2022-12-24T15:21:33.239Z,21.00
2022-12-24T15:26:36.628Z,22.42
2022-12-24T15:31:39.035Z,35.03
2022-12-24T15:36:41.251Z,44.28
2022-12-24T15:42:03.967Z,44.10
2022-12-24T15:47:18.691Z,45.20
2022-12-24T15:52:24.657Z,40.40
2022-12-24T15:57:31.940Z,42.25
2022-12-24T16:02:42.262Z,44.22
2022-12-24T16:08:08.599Z,45.55
2022-12-24T16:13:31.327Z,53.65
2022-12-24T16:18:49.027Z,45.22
2022-12-24T16:23:54.629Z,50.83
2022-12-24T16:28:56.874Z,46.85
2022-12-24T16:34:01.067Z,42.78
2022-12-24T16:39:21.563Z,45.55
2022-12-24T16:44:23.760Z,46.47
2022-12-24T16:49:26.971Z,50.03
2022-12-24T16:54:30.117Z,46.88
2022-12-24T16:59:32.715Z,47.30
2022-12-24T17:04:35.142Z,46.60
2022-12-24T17:09:37.404Z,47.30
2022-12-24T17:14:40.745Z,54.22
2022-12-24T17:19:43.109Z,46.50
2022-12-24T17:24:45.691Z,61.05
2022-12-24T17:29:47.984Z,55.53
2022-12-24T17:34:50.242Z,52.75
2022-12-24T17:39:52.472Z,58.35
2022-12-24T17:44:54.731Z,64.20
2022-12-24T17:49:56.993Z,66.47
2022-12-24T17:54:59.358Z,58.45
2022-12-24T18:00:01.760Z,55.75
2022-12-24T18:05:23.903Z,58.80
2022-12-24T18:10:26.173Z,148.57
2022-12-24T18:15:28.435Z,97.35
2022-12-24T18:20:33.778Z,112.93
2022-12-24T18:25:36.023Z,101.30
2022-12-24T18:30:38.253Z,125.32
2022-12-24T18:35:40.523Z,168.02
2022-12-24T18:40:42.772Z,61.03
2022-12-24T18:45:45.854Z,65.22
2022-12-24T18:50:56.187Z,49.67
2022-12-24T18:56:17.816Z,54.83
2022-12-24T19:01:25.378Z,49.53
2022-12-24T19:06:28.107Z,50.90
2022-12-24T19:11:32.587Z,55.58
2022-12-24T19:16:36.930Z,63.15
2022-12-24T19:21:39.298Z,62.25
2022-12-24T19:26:41.595Z,60.47
2022-12-24T19:31:47.194Z,63.45
2022-12-24T19:36:49.653Z,61.45
2022-12-24T19:41:52.500Z,55.83
2022-12-24T19:46:54.801Z,55.13
2022-12-24T19:51:57.280Z,54.03
2022-12-24T19:56:59.518Z,59.17
2022-12-24T20:02:02.341Z,74.43
2022-12-24T20:07:04.669Z,109.55
2022-12-24T20:12:07.325Z,76.32
2022-12-24T20:17:10.018Z,93.32
2022-12-24T20:22:12.753Z,83.40
2022-12-24T20:27:15.058Z,68.93
2022-12-24T20:32:17.426Z,77.60
2022-12-24T20:37:19.748Z,62.97
2022-12-24T20:42:22.029Z,66.00
2022-12-24T20:47:24.290Z,70.20
2022-12-24T20:52:26.620Z,67.03
2022-12-24T20:57:34.398Z,57.13
2022-12-24T21:02:38.730Z,48.67
2022-12-24T21:07:42.991Z,56.58
2022-12-24T21:12:56.762Z,51.55
2022-12-24T21:17:59.802Z,48.72
2022-12-24T21:23:02.318Z,52.15
2022-12-24T21:28:04.774Z,37.70
2022-12-24T21:33:06.997Z,49.30
2022-12-24T21:38:09.249Z,48.58
2022-12-24T21:43:11.447Z,42.22
2022-12-24T21:48:32.200Z,38.20
2022-12-24T21:53:52.988Z,47.83
2022-12-24T21:58:55.202Z,45.40
2022-12-24T22:03:57.438Z,42.15
2022-12-24T22:09:20.437Z,43.25
2022-12-24T22:14:22.678Z,38.20
2022-12-24T22:19:25.201Z,44.88
2022-12-24T22:24:27.461Z,44.15
2022-12-24T22:29:29.791Z,53.28
2022-12-24T22:34:32.840Z,43.53
2022-12-24T22:39:35.112Z,37.55
2022-12-24T22:44:37.369Z,39.70
2022-12-24T22:49:39.585Z,39.95
2022-12-24T22:54:41.945Z,41.30
2022-12-24T22:59:44.500Z,44.83
2022-12-24T23:04:46.919Z,43.28
2022-12-24T23:09:49.237Z,42.13
2022-12-24T23:14:57.338Z,48.92
2022-12-24T23:20:02.081Z,35.28
2022-12-24T23:25:04.602Z,38.40
2022-12-24T23:30:07.626Z,47.85
2022-12-24T23:35:09.896Z,37.35
2022-12-24T23:40:12.327Z,34.88
2022-12-24T23:45:14.762Z,38.90
2022-12-24T23:50:17.146Z,40.88
2022-12-24T23:55:19.391Z,39.53
